sensor_id;sensor_type;location;lat;lon;timestamp;pressure;altitude;pressure_sealevel;temperature;humidity
51496;BME280;37572;52.094;4.870;2024-01-30T00:02:11;102576.69;;;11.38;62.39
51496;BME280;37572;52.094;4.870;2024-01-30T00:04:36;102578.50;;;11.38;62.61
51496;BME280;37572;52.094;4.870;2024-01-30T00:07:02;102571.47;;;11.37;62.52
51496;BME280;37572;52.094;4.870;2024-01-30T00:09:27;102574.97;;;11.37;62.33
51496;BME280;37572;52.094;4.870;2024-01-30T00:11:52;102576.69;;;11.38;62.64
51496;BME280;37572;52.094;4.870;2024-01-30T00:14:18;102575.94;;;11.36;62.46
51496;BME280;37572;52.094;4.870;2024-01-30T00:16:43;102572.41;;;11.36;62.42
51496;BME280;37572;52.094;4.870;2024-01-30T00:19:09;102566.00;;;11.38;62.75
51496;BME280;37572;52.094;4.870;2024-01-30T00:21:34;102567.84;;;11.38;62.67
51496;BME280;37572;52.094;4.870;2024-01-30T00:23:59;102566.97;;;11.37;62.39
51496;BME280;37572;52.094;4.870;2024-01-30T00:26:24;102564.56;;;11.34;62.45
51496;BME280;37572;52.094;4.870;2024-01-30T00:28:50;102573.53;;;11.33;62.64
51496;BME280;37572;52.094;4.870;2024-01-30T00:31:15;102563.31;;;11.27;62.73
51496;BME280;37572;52.094;4.870;2024-01-30T00:33:41;102568.88;;;11.24;62.85
51496;BME280;37572;52.094;4.870;2024-01-30T00:36:07;102561.00;;;11.22;62.78
51496;BME280;37572;52.094;4.870;2024-01-30T00:38:33;102563.94;;;11.19;62.74
51496;BME280;37572;52.094;4.870;2024-01-30T00:40:58;102561.38;;;11.18;62.67
51496;BME280;37572;52.094;4.870;2024-01-30T00:43:24;102562.09;;;11.20;62.76
51496;BME280;37572;52.094;4.870;2024-01-30T00:45:50;102562.81;;;11.22;62.72
51496;BME280;37572;52.094;4.870;2024-01-30T00:48:17;102557.25;;;11.25;62.62
51496;BME280;37572;52.094;4.870;2024-01-30T00:50:42;102551.09;;;11.24;62.43
51496;BME280;37572;52.094;4.870;2024-01-30T00:53:07;102540.19;;;11.27;62.40
51496;BME280;37572;52.094;4.870;2024-01-30T00:55:33;102530.34;;;11.28;62.60
51496;BME280;37572;52.094;4.870;2024-01-30T00:57:58;102534.47;;;11.32;62.35
51496;BME280;37572;52.094;4.870;2024-01-30T01:00:23;102542.22;;;11.35;62.40
51496;BME280;37572;52.094;4.870;2024-01-30T01:02:54;102541.41;;;11.35;62.49
51496;BME280;37572;52.094;4.870;2024-01-30T01:05:19;102547.47;;;11.37;62.37
51496;BME280;37572;52.094;4.870;2024-01-30T01:07:44;102548.19;;;11.39;62.37
51496;BME280;37572;52.094;4.870;2024-01-30T01:10:12;102549.03;;;11.39;62.42
51496;BME280;37572;52.094;4.870;2024-01-30T01:12:39;102560.22;;;11.44;62.32
51496;BME280;37572;52.094;4.870;2024-01-30T01:15:04;102560.81;;;11.48;62.24
51496;BME280;37572;52.094;4.870;2024-01-30T01:17:30;102560.69;;;11.50;62.12
51496;BME280;37572;52.094;4.870;2024-01-30T01:19:55;102556.09;;;11.52;61.84
51496;BME280;37572;52.094;4.870;2024-01-30T01:22:20;102554.63;;;11.47;61.77
51496;BME280;37572;52.094;4.870;2024-01-30T01:24:46;102549.53;;;11.44;61.81
51496;BME280;37572;52.094;4.870;2024-01-30T01:27:11;102541.28;;;11.36;61.89
51496;BME280;37572;52.094;4.870;2024-01-30T01:29:37;102539.91;;;11.30;61.97
51496;BME280;37572;52.094;4.870;2024-01-30T01:32:03;102541.03;;;11.28;61.82
51496;BME280;37572;52.094;4.870;2024-01-30T01:34:28;102542.97;;;11.26;61.98
51496;BME280;37572;52.094;4.870;2024-01-30T01:36:53;102535.56;;;11.29;61.92
51496;BME280;37572;52.094;4.870;2024-01-30T01:39:20;102533.25;;;11.25;62.08
51496;BME280;37572;52.094;4.870;2024-01-30T01:41:46;102541.50;;;11.22;62.01
51496;BME280;37572;52.094;4.870;2024-01-30T01:44:11;102538.94;;;11.20;62.15
51496;BME280;37572;52.094;4.870;2024-01-30T01:46:36;102546.22;;;11.18;62.08
51496;BME280;37572;52.094;4.870;2024-01-30T01:49:04;102549.00;;;11.17;62.01
51496;BME280;37572;52.094;4.870;2024-01-30T01:51:31;102535.78;;;11.15;61.94
51496;BME280;37572;52.094;4.870;2024-01-30T01:54:03;102530.69;;;11.12;62.10
51496;BME280;37572;52.094;4.870;2024-01-30T01:56:29;102523.56;;;11.13;62.06
51496;BME280;37572;52.094;4.870;2024-01-30T01:58:58;102536.63;;;11.16;62.08
51496;BME280;37572;52.094;4.870;2024-01-30T02:01:25;102533.72;;;11.19;62.28
51496;BME280;37572;52.094;4.870;2024-01-30T02:03:52;102534.47;;;11.21;62.25
51496;BME280;37572;52.094;4.870;2024-01-30T02:06:18;102528.88;;;11.24;62.14
51496;BME280;37572;52.094;4.870;2024-01-30T02:08:43;102537.63;;;11.26;62.31
51496;BME280;37572;52.094;4.870;2024-01-30T02:11:09;102541.75;;;11.30;62.16
51496;BME280;37572;52.094;4.870;2024-01-30T02:13:38;102555.47;;;11.37;62.74
51496;BME280;37572;52.094;4.870;2024-01-30T02:16:03;102536.66;;;11.38;62.06
51496;BME280;37572;52.094;4.870;2024-01-30T02:18:29;102522.72;;;11.35;62.07
51496;BME280;37572;52.094;4.870;2024-01-30T02:20:56;102519.44;;;11.31;62.07
51496;BME280;37572;52.094;4.870;2024-01-30T02:23:24;102513.13;;;11.32;61.85
51496;BME280;37572;52.094;4.870;2024-01-30T02:25:52;102524.28;;;11.37;62.03
51496;BME280;37572;52.094;4.870;2024-01-30T02:28:18;102511.59;;;11.41;61.95
51496;BME280;37572;52.094;4.870;2024-01-30T02:30:44;102518.59;;;11.42;61.86
51496;BME280;37572;52.094;4.870;2024-01-30T02:33:10;102505.03;;;11.45;61.79
51496;BME280;37572;52.094;4.870;2024-01-30T02:35:35;102511.59;;;11.41;61.83
51496;BME280;37572;52.094;4.870;2024-01-30T02:38:01;102512.44;;;11.41;61.83
51496;BME280;37572;52.094;4.870;2024-01-30T02:40:26;102516.28;;;11.37;62.00
51496;BME280;37572;52.094;4.870;2024-01-30T02:42:51;102505.38;;;11.40;61.95
51496;BME280;37572;52.094;4.870;2024-01-30T02:45:17;102515.69;;;11.45;61.75
51496;BME280;37572;52.094;4.870;2024-01-30T02:47:42;102522.63;;;11.47;62.00
51496;BME280;37572;52.094;4.870;2024-01-30T02:50:08;102519.69;;;11.51;61.86
51496;BME280;37572;52.094;4.870;2024-01-30T02:52:33;102517.03;;;11.51;62.10
51496;BME280;37572;52.094;4.870;2024-01-30T02:54:59;102510.84;;;11.50;61.82
51496;BME280;37572;52.094;4.870;2024-01-30T02:57:24;102508.78;;;11.54;61.62
51496;BME280;37572;52.094;4.870;2024-01-30T02:59:50;102506.22;;;11.52;61.70
51496;BME280;37572;52.094;4.870;2024-01-30T03:02:15;102500.06;;;11.52;61.71
51496;BME280;37572;52.094;4.870;2024-01-30T03:04:41;102506.88;;;11.56;61.74
51496;BME280;37572;52.094;4.870;2024-01-30T03:07:06;102498.00;;;11.55;61.62
51496;BME280;37572;52.094;4.870;2024-01-30T03:09:31;102490.84;;;11.56;61.75
51496;BME280;37572;52.094;4.870;2024-01-30T03:11:57;102494.47;;;11.55;61.86
51496;BME280;37572;52.094;4.870;2024-01-30T03:14:22;102492.88;;;11.52;61.90
51496;BME280;37572;52.094;4.870;2024-01-30T03:16:47;102482.09;;;11.54;62.09
51496;BME280;37572;52.094;4.870;2024-01-30T03:19:13;102480.19;;;11.56;61.87
51496;BME280;37572;52.094;4.870;2024-01-30T03:21:38;102472.03;;;11.57;61.97
51496;BME280;37572;52.094;4.870;2024-01-30T03:24:03;102475.56;;;11.58;61.91
51496;BME280;37572;52.094;4.870;2024-01-30T03:26:29;102468.41;;;11.58;61.86
51496;BME280;37572;52.094;4.870;2024-01-30T03:28:54;102471.78;;;11.60;62.10
51496;BME280;37572;52.094;4.870;2024-01-30T03:31:19;102477.00;;;11.62;62.00
51496;BME280;37572;52.094;4.870;2024-01-30T03:33:45;102477.47;;;11.67;61.97
51496;BME280;37572;52.094;4.870;2024-01-30T03:36:10;102483.28;;;11.72;61.67
51496;BME280;37572;52.094;4.870;2024-01-30T03:38:36;102480.63;;;11.72;61.56
51496;BME280;37572;52.094;4.870;2024-01-30T03:41:01;102483.41;;;11.71;61.63
51496;BME280;37572;52.094;4.870;2024-01-30T03:43:26;102486.72;;;11.74;61.41
51496;BME280;37572;52.094;4.870;2024-01-30T03:45:52;102481.25;;;11.76;61.47
51496;BME280;37572;52.094;4.870;2024-01-30T03:48:18;102479.78;;;11.72;61.47
51496;BME280;37572;52.094;4.870;2024-01-30T03:50:43;102484.28;;;11.71;61.47
51496;BME280;37572;52.094;4.870;2024-01-30T03:53:08;102481.84;;;11.68;61.42
51496;BME280;37572;52.094;4.870;2024-01-30T03:55:34;102476.03;;;11.63;61.51
51496;BME280;37572;52.094;4.870;2024-01-30T03:57:59;102479.06;;;11.58;61.50
51496;BME280;37572;52.094;4.870;2024-01-30T04:00:25;102476.28;;;11.60;61.63
51496;BME280;37572;52.094;4.870;2024-01-30T04:02:50;102485.53;;;11.56;61.58
51496;BME280;37572;52.094;4.870;2024-01-30T04:05:16;102475.56;;;11.58;61.58
51496;BME280;37572;52.094;4.870;2024-01-30T04:07:41;102476.75;;;11.54;61.52
51496;BME280;37572;52.094;4.870;2024-01-30T04:10:07;102470.34;;;11.45;61.81
51496;BME280;37572;52.094;4.870;2024-01-30T04:12:33;102473.25;;;11.42;61.66
51496;BME280;37572;52.094;4.870;2024-01-30T04:14:58;102475.81;;;11.43;62.02
51496;BME280;37572;52.094;4.870;2024-01-30T04:17:23;102471.56;;;11.41;61.95
51496;BME280;37572;52.094;4.870;2024-01-30T04:19:49;102458.47;;;11.38;62.09
51496;BME280;37572;52.094;4.870;2024-01-30T04:22:14;102454.94;;;11.37;62.04
51496;BME280;37572;52.094;4.870;2024-01-30T04:24:39;102454.81;;;11.39;62.10
51496;BME280;37572;52.094;4.870;2024-01-30T04:27:05;102450.25;;;11.41;62.07
51496;BME280;37572;52.094;4.870;2024-01-30T04:29:30;102459.06;;;11.41;62.01
51496;BME280;37572;52.094;4.870;2024-01-30T04:31:57;102454.56;;;11.42;62.12
51496;BME280;37572;52.094;4.870;2024-01-30T04:34:22;102450.59;;;11.47;62.13
51496;BME280;37572;52.094;4.870;2024-01-30T04:36:47;102451.19;;;11.51;61.72
51496;BME280;37572;52.094;4.870;2024-01-30T04:39:13;102458.09;;;11.54;61.86
51496;BME280;37572;52.094;4.870;2024-01-30T04:41:38;102450.31;;;11.51;61.80
51496;BME280;37572;52.094;4.870;2024-01-30T04:44:03;102449.25;;;11.53;62.15
51496;BME280;37572;52.094;4.870;2024-01-30T04:46:29;102443.78;;;11.55;62.30
51496;BME280;37572;52.094;4.870;2024-01-30T04:48:54;102449.84;;;11.57;62.16
51496;BME280;37572;52.094;4.870;2024-01-30T04:51:19;102446.34;;;11.56;62.01
51496;BME280;37572;52.094;4.870;2024-01-30T04:53:45;102436.50;;;11.57;62.01
51496;BME280;37572;52.094;4.870;2024-01-30T04:56:10;102435.66;;;11.56;62.23
51496;BME280;37572;52.094;4.870;2024-01-30T04:58:35;102439.75;;;11.60;62.15
51496;BME280;37572;52.094;4.870;2024-01-30T05:01:02;102438.69;;;11.63;62.25
51496;BME280;37572;52.094;4.870;2024-01-30T05:03:27;102430.56;;;11.64;62.17
51496;BME280;37572;52.094;4.870;2024-01-30T05:05:52;102428.72;;;11.65;62.27
51496;BME280;37572;52.094;4.870;2024-01-30T05:08:17;102435.03;;;11.64;62.24
51496;BME280;37572;52.094;4.870;2024-01-30T05:10:43;102432.13;;;11.67;62.10
51496;BME280;37572;52.094;4.870;2024-01-30T05:13:08;102439.88;;;11.70;62.21
51496;BME280;37572;52.094;4.870;2024-01-30T05:15:33;102438.41;;;11.77;62.18
51496;BME280;37572;52.094;4.870;2024-01-30T05:17:59;102433.56;;;11.82;61.88
51496;BME280;37572;52.094;4.870;2024-01-30T05:20:24;102439.50;;;11.86;61.91
51496;BME280;37572;52.094;4.870;2024-01-30T05:22:53;102435.97;;;11.85;61.73
51496;BME280;37572;52.094;4.870;2024-01-30T05:25:18;102435.00;;;11.87;61.91
51496;BME280;37572;52.094;4.870;2024-01-30T05:27:44;102434.75;;;11.90;61.94
51496;BME280;37572;52.094;4.870;2024-01-30T05:30:10;102439.50;;;11.86;61.98
51496;BME280;37572;52.094;4.870;2024-01-30T05:32:35;102448.22;;;11.88;62.03
51496;BME280;37572;52.094;4.870;2024-01-30T05:35:01;102440.09;;;11.90;61.94
51496;BME280;37572;52.094;4.870;2024-01-30T05:37:26;102434.53;;;11.93;62.04
51496;BME280;37572;52.094;4.870;2024-01-30T05:39:51;102442.28;;;11.96;61.82
51496;BME280;37572;52.094;4.870;2024-01-30T05:42:17;102442.03;;;11.99;62.05
51496;BME280;37572;52.094;4.870;2024-01-30T05:44:42;102438.25;;;12.01;61.75
51496;BME280;37572;52.094;4.870;2024-01-30T05:47:08;102442.53;;;12.04;61.92
51496;BME280;37572;52.094;4.870;2024-01-30T05:49:33;102445.66;;;12.09;61.83
51496;BME280;37572;52.094;4.870;2024-01-30T05:52:00;102441.88;;;12.12;61.73
51496;BME280;37572;52.094;4.870;2024-01-30T05:54:25;102442.47;;;12.15;61.76
51496;BME280;37572;52.094;4.870;2024-01-30T05:56:50;102451.06;;;12.19;61.73
51496;BME280;37572;52.094;4.870;2024-01-30T05:59:16;102446.34;;;12.23;61.60
51496;BME280;37572;52.094;4.870;2024-01-30T06:01:48;102440.72;;;12.26;61.55
51496;BME280;37572;52.094;4.870;2024-01-30T06:04:13;102453.94;;;12.27;61.74
51496;BME280;37572;52.094;4.870;2024-01-30T06:06:39;102451.28;;;12.27;61.66
51496;BME280;37572;52.094;4.870;2024-01-30T06:09:05;102442.41;;;12.27;61.54
51496;BME280;37572;52.094;4.870;2024-01-30T06:11:30;102448.59;;;12.27;61.50
51496;BME280;37572;52.094;4.870;2024-01-30T06:13:55;102448.88;;;12.24;61.72
51496;BME280;37572;52.094;4.870;2024-01-30T06:16:21;102456.16;;;12.22;61.91
51496;BME280;37572;52.094;4.870;2024-01-30T06:18:47;102450.09;;;12.20;61.89
51496;BME280;37572;52.094;4.870;2024-01-30T06:21:13;102461.75;;;12.19;62.03
51496;BME280;37572;52.094;4.870;2024-01-30T06:23:38;102456.41;;;12.19;62.42
51496;BME280;37572;52.094;4.870;2024-01-30T06:26:06;102466.84;;;12.22;62.12
51496;BME280;37572;52.094;4.870;2024-01-30T06:28:31;102455.66;;;12.28;62.04
51496;BME280;37572;52.094;4.870;2024-01-30T06:30:56;102466.78;;;12.33;62.03
51496;BME280;37572;52.094;4.870;2024-01-30T06:33:21;102466.66;;;12.35;62.09
51496;BME280;37572;52.094;4.870;2024-01-30T06:35:47;102455.16;;;12.34;62.05
51496;BME280;37572;52.094;4.870;2024-01-30T06:38:13;102461.34;;;12.35;61.96
51496;BME280;37572;52.094;4.870;2024-01-30T06:40:38;102455.84;;;12.36;62.35
51496;BME280;37572;52.094;4.870;2024-01-30T06:43:04;102455.03;;;12.36;62.22
51496;BME280;37572;52.094;4.870;2024-01-30T06:45:29;102448.69;;;12.37;62.27
51496;BME280;37572;52.094;4.870;2024-01-30T06:47:56;102453.78;;;12.40;62.30
51496;BME280;37572;52.094;4.870;2024-01-30T06:50:21;102459.84;;;12.42;62.37
51496;BME280;37572;52.094;4.870;2024-01-30T06:52:47;102461.16;;;12.48;62.20
51496;BME280;37572;52.094;4.870;2024-01-30T06:55:12;102455.28;;;12.54;62.09
51496;BME280;37572;52.094;4.870;2024-01-30T06:57:37;102453.94;;;12.59;62.28
51496;BME280;37572;52.094;4.870;2024-01-30T07:00:03;102452.22;;;12.58;62.05
51496;BME280;37572;52.094;4.870;2024-01-30T07:02:28;102469.47;;;12.66;62.11
51496;BME280;37572;52.094;4.870;2024-01-30T07:04:53;102456.81;;;12.68;62.04
51496;BME280;37572;52.094;4.870;2024-01-30T07:07:19;102461.16;;;12.69;62.11
51496;BME280;37572;52.094;4.870;2024-01-30T07:09:44;102471.59;;;12.72;62.24
51496;BME280;37572;52.094;4.870;2024-01-30T07:12:09;102468.41;;;12.78;62.03
51496;BME280;37572;52.094;4.870;2024-01-30T07:14:35;102473.94;;;12.86;62.00
51496;BME280;37572;52.094;4.870;2024-01-30T07:17:00;102476.25;;;12.91;61.75
51496;BME280;37572;52.094;4.870;2024-01-30T07:19:26;102478.38;;;12.97;61.80
51496;BME280;37572;52.094;4.870;2024-01-30T07:21:51;102471.66;;;13.03;61.62
51496;BME280;37572;52.094;4.870;2024-01-30T07:24:16;102480.97;;;13.08;61.67
51496;BME280;37572;52.094;4.870;2024-01-30T07:26:42;102478.31;;;13.08;61.75
51496;BME280;37572;52.094;4.870;2024-01-30T07:29:07;102476.34;;;13.10;61.66
51496;BME280;37572;52.094;4.870;2024-01-30T07:31:32;102477.78;;;13.14;61.45
51496;BME280;37572;52.094;4.870;2024-01-30T07:33:58;102484.84;;;13.16;61.58
51496;BME280;37572;52.094;4.870;2024-01-30T07:36:23;102489.75;;;13.20;61.37
51496;BME280;37572;52.094;4.870;2024-01-30T07:38:48;102496.56;;;13.24;61.36
51496;BME280;37572;52.094;4.870;2024-01-30T07:41:13;102494.84;;;13.23;61.36
51496;BME280;37572;52.094;4.870;2024-01-30T07:43:39;102499.38;;;13.23;61.33
51496;BME280;37572;52.094;4.870;2024-01-30T07:46:04;102498.53;;;13.22;61.46
51496;BME280;37572;52.094;4.870;2024-01-30T07:48:32;102500.06;;;13.25;61.42
51496;BME280;37572;52.094;4.870;2024-01-30T07:50:59;102499.81;;;13.28;61.19
51496;BME280;37572;52.094;4.870;2024-01-30T07:53:24;102504.66;;;13.34;61.23
51496;BME280;37572;52.094;4.870;2024-01-30T07:55:49;102501.56;;;13.39;61.29
51496;BME280;37572;52.094;4.870;2024-01-30T07:58:15;102504.56;;;13.45;61.27
51496;BME280;37572;52.094;4.870;2024-01-30T08:00:40;102507.28;;;13.55;60.97
51496;BME280;37572;52.094;4.870;2024-01-30T08:03:05;102498.03;;;13.59;60.80
51496;BME280;37572;52.094;4.870;2024-01-30T08:05:30;102510.84;;;13.65;60.71
51496;BME280;37572;52.094;4.870;2024-01-30T08:07:56;102515.09;;;13.68;60.75
51496;BME280;37572;52.094;4.870;2024-01-30T08:10:21;102527.22;;;13.72;60.56
51496;BME280;37572;52.094;4.870;2024-01-30T08:12:47;102522.59;;;13.74;60.62
51496;BME280;37572;52.094;4.870;2024-01-30T08:15:12;102516.22;;;13.75;60.60
51496;BME280;37572;52.094;4.870;2024-01-30T08:17:40;102522.47;;;13.76;60.73
51496;BME280;37572;52.094;4.870;2024-01-30T08:20:06;102522.28;;;13.67;60.74
51496;BME280;37572;52.094;4.870;2024-01-30T08:22:33;102530.03;;;13.71;60.80
51496;BME280;37572;52.094;4.870;2024-01-30T08:24:58;102527.94;;;13.74;60.68
51496;BME280;37572;52.094;4.870;2024-01-30T08:27:24;102533.28;;;13.74;60.86
51496;BME280;37572;52.094;4.870;2024-01-30T08:29:49;102536.53;;;13.78;60.73
51496;BME280;37572;52.094;4.870;2024-01-30T08:32:15;102532.03;;;13.78;60.70
51496;BME280;37572;52.094;4.870;2024-01-30T08:34:40;102546.00;;;13.82;60.83
51496;BME280;37572;52.094;4.870;2024-01-30T08:37:06;102535.28;;;13.82;60.74
51496;BME280;37572;52.094;4.870;2024-01-30T08:39:31;102530.94;;;13.81;60.70
51496;BME280;37572;52.094;4.870;2024-01-30T08:41:56;102538.81;;;13.82;60.81
51496;BME280;37572;52.094;4.870;2024-01-30T08:44:21;102540.22;;;13.86;61.08
51496;BME280;37572;52.094;4.870;2024-01-30T08:46:47;102539.84;;;13.91;60.76
51496;BME280;37572;52.094;4.870;2024-01-30T08:49:13;102542.38;;;13.93;60.80
51496;BME280;37572;52.094;4.870;2024-01-30T08:51:41;102548.16;;;13.98;60.57
51496;BME280;37572;52.094;4.870;2024-01-30T08:54:06;102547.63;;;14.04;60.67
51496;BME280;37572;52.094;4.870;2024-01-30T08:56:32;102543.53;;;14.10;60.44
51496;BME280;37572;52.094;4.870;2024-01-30T08:58:57;102549.47;;;14.13;60.63
51496;BME280;37572;52.094;4.870;2024-01-30T09:01:23;102554.41;;;14.18;60.65
51496;BME280;37572;52.094;4.870;2024-01-30T09:03:48;102540.88;;;14.19;60.77
51496;BME280;37572;52.094;4.870;2024-01-30T09:06:13;102548.53;;;14.24;60.71
51496;BME280;37572;52.094;4.870;2024-01-30T09:08:39;102551.75;;;14.28;60.61
51496;BME280;37572;52.094;4.870;2024-01-30T09:11:12;102550.50;;;14.32;60.69
51496;BME280;37572;52.094;4.870;2024-01-30T09:13:38;102542.19;;;14.35;60.56
51496;BME280;37572;52.094;4.870;2024-01-30T09:16:03;102552.22;;;14.42;60.36
51496;BME280;37572;52.094;4.870;2024-01-30T09:18:29;102546.44;;;14.47;60.19
51496;BME280;37572;52.094;4.870;2024-01-30T09:20:54;102557.59;;;14.52;60.21
51496;BME280;37572;52.094;4.870;2024-01-30T09:23:19;102547.28;;;14.57;60.03
51496;BME280;37572;52.094;4.870;2024-01-30T09:25:45;102559.31;;;14.63;60.02
51496;BME280;37572;52.094;4.870;2024-01-30T09:28:10;102563.56;;;14.66;59.82
51496;BME280;37572;52.094;4.870;2024-01-30T09:30:36;102560.56;;;14.69;59.79
51496;BME280;37572;52.094;4.870;2024-01-30T09:33:01;102565.50;;;14.73;59.67
51496;BME280;37572;52.094;4.870;2024-01-30T09:35:26;102564.41;;;14.76;59.56
51496;BME280;37572;52.094;4.870;2024-01-30T09:37:51;102573.97;;;14.78;59.37
51496;BME280;37572;52.094;4.870;2024-01-30T09:40:18;102574.84;;;14.79;59.34
51496;BME280;37572;52.094;4.870;2024-01-30T09:42:46;102569.16;;;14.82;59.20
51496;BME280;37572;52.094;4.870;2024-01-30T09:45:13;102582.16;;;14.87;59.17
51496;BME280;37572;52.094;4.870;2024-01-30T09:47:43;102588.09;;;14.90;59.05
51496;BME280;37572;52.094;4.870;2024-01-30T09:50:10;102593.59;;;14.98;58.97
51496;BME280;37572;52.094;4.870;2024-01-30T09:52:36;102589.50;;;15.04;58.84
51496;BME280;37572;52.094;4.870;2024-01-30T09:55:02;102585.41;;;15.10;58.81
51496;BME280;37572;52.094;4.870;2024-01-30T09:57:28;102592.19;;;15.14;58.56
51496;BME280;37572;52.094;4.870;2024-01-30T09:59:53;102579.59;;;15.14;58.26
51496;BME280;37572;52.094;4.870;2024-01-30T10:02:21;102586.97;;;15.12;58.29
51496;BME280;37572;52.094;4.870;2024-01-30T10:04:48;102597.13;;;15.09;58.21
51496;BME280;37572;52.094;4.870;2024-01-30T10:07:14;102609.41;;;15.11;58.15
51496;BME280;37572;52.094;4.870;2024-01-30T10:09:39;102616.63;;;15.11;58.09
51496;BME280;37572;52.094;4.870;2024-01-30T10:12:05;102591.78;;;15.09;58.01
51496;BME280;37572;52.094;4.870;2024-01-30T10:14:31;102588.38;;;15.07;58.01
51496;BME280;37572;52.094;4.870;2024-01-30T10:16:57;102601.34;;;15.02;57.98
51496;BME280;37572;52.094;4.870;2024-01-30T10:19:22;102603.22;;;15.01;58.09
51496;BME280;37572;52.094;4.870;2024-01-30T10:21:48;102606.88;;;15.00;58.02
51496;BME280;37572;52.094;4.870;2024-01-30T10:24:13;102604.19;;;15.00;58.02
51496;BME280;37572;52.094;4.870;2024-01-30T10:26:39;102613.94;;;15.01;58.12
51496;BME280;37572;52.094;4.870;2024-01-30T10:29:05;102619.03;;;15.04;57.84
51496;BME280;37572;52.094;4.870;2024-01-30T10:31:30;102610.09;;;15.04;57.88
51496;BME280;37572;52.094;4.870;2024-01-30T10:33:56;102621.44;;;15.07;57.62
51496;BME280;37572;52.094;4.870;2024-01-30T10:36:25;102624.81;;;15.09;57.69
51496;BME280;37572;52.094;4.870;2024-01-30T10:38:55;102625.09;;;15.06;57.31
51496;BME280;37572;52.094;4.870;2024-01-30T10:41:26;102627.63;;;14.98;57.03
51496;BME280;37572;52.094;4.870;2024-01-30T10:44:00;102637.50;;;14.88;56.92
51496;BME280;37572;52.094;4.870;2024-01-30T10:46:31;102637.38;;;14.79;56.95
51496;BME280;37572;52.094;4.870;2024-01-30T10:48:58;102627.47;;;14.70;56.71
51496;BME280;37572;52.094;4.870;2024-01-30T10:51:27;102641.16;;;14.67;56.48
51496;BME280;37572;52.094;4.870;2024-01-30T10:53:53;102647.78;;;14.63;56.50
51496;BME280;37572;52.094;4.870;2024-01-30T10:56:22;102638.34;;;14.59;56.20
51496;BME280;37572;52.094;4.870;2024-01-30T10:58:53;102645.91;;;14.54;56.11
51496;BME280;37572;52.094;4.870;2024-01-30T11:01:20;102649.13;;;14.48;55.82
51496;BME280;37572;52.094;4.870;2024-01-30T11:03:51;102640.34;;;14.36;55.53
51496;BME280;37572;52.094;4.870;2024-01-30T11:06:17;102634.84;;;14.28;55.01
51496;BME280;37572;52.094;4.870;2024-01-30T11:08:45;102640.28;;;14.16;54.69
51496;BME280;37572;52.094;4.870;2024-01-30T11:11:11;102650.25;;;14.04;54.57
51496;BME280;37572;52.094;4.870;2024-01-30T11:13:36;102655.56;;;13.95;54.52
51496;BME280;37572;52.094;4.870;2024-01-30T11:16:03;102656.81;;;13.91;55.02
51496;BME280;37572;52.094;4.870;2024-01-30T11:18:29;102640.03;;;13.88;55.10
51496;BME280;37572;52.094;4.870;2024-01-30T11:21:01;102642.97;;;13.85;55.02
51496;BME280;37572;52.094;4.870;2024-01-30T11:23:30;102654.94;;;13.81;55.28
51496;BME280;37572;52.094;4.870;2024-01-30T11:25:56;102656.44;;;13.74;55.59
51496;BME280;37572;52.094;4.870;2024-01-30T11:28:22;102655.88;;;13.71;55.68
51496;BME280;37572;52.094;4.870;2024-01-30T11:30:48;102653.47;;;13.67;55.98
51496;BME280;37572;52.094;4.870;2024-01-30T11:33:27;102653.59;;;13.66;56.24
51496;BME280;37572;52.094;4.870;2024-01-30T11:35:53;102658.38;;;13.62;56.09
51496;BME280;37572;52.094;4.870;2024-01-30T11:38:19;102659.59;;;13.58;56.57
51496;BME280;37572;52.094;4.870;2024-01-30T11:40:44;102667.63;;;13.58;56.64
51496;BME280;37572;52.094;4.870;2024-01-30T11:43:10;102656.47;;;13.53;56.31
51496;BME280;37572;52.094;4.870;2024-01-30T11:45:36;102669.38;;;13.48;56.45
51496;BME280;37572;52.094;4.870;2024-01-30T11:48:03;102672.44;;;13.43;56.41
51496;BME280;37572;52.094;4.870;2024-01-30T11:50:35;102668.47;;;13.38;56.39
51496;BME280;37572;52.094;4.870;2024-01-30T11:53:00;102680.13;;;13.37;56.39
51496;BME280;37572;52.094;4.870;2024-01-30T11:55:26;102676.75;;;13.35;56.31
51496;BME280;37572;52.094;4.870;2024-01-30T11:57:55;102671.28;;;13.36;56.14
51496;BME280;37572;52.094;4.870;2024-01-30T12:00:21;102664.72;;;13.29;55.84
51496;BME280;37572;52.094;4.870;2024-01-30T12:02:50;102674.94;;;13.24;55.78
51496;BME280;37572;52.094;4.870;2024-01-30T12:05:16;102667.31;;;13.19;56.05
51496;BME280;37572;52.094;4.870;2024-01-30T12:07:44;102674.59;;;13.17;55.87
51496;BME280;37572;52.094;4.870;2024-01-30T12:10:09;102669.66;;;13.12;56.16
51496;BME280;37572;52.094;4.870;2024-01-30T12:12:36;102686.19;;;13.06;56.38
51496;BME280;37572;52.094;4.870;2024-01-30T12:15:02;102681.22;;;13.02;56.34
51496;BME280;37572;52.094;4.870;2024-01-30T12:17:32;102667.00;;;13.01;56.67
51496;BME280;37572;52.094;4.870;2024-01-30T12:20:13;102673.19;;;13.02;56.74
51496;BME280;37572;52.094;4.870;2024-01-30T12:22:44;102680.25;;;13.03;56.81
51496;BME280;37572;52.094;4.870;2024-01-30T12:25:16;102675.50;;;13.06;57.06
51496;BME280;37572;52.094;4.870;2024-01-30T12:27:43;102686.78;;;13.10;56.88
51496;BME280;37572;52.094;4.870;2024-01-30T12:30:12;102684.00;;;13.11;56.69
51496;BME280;37572;52.094;4.870;2024-01-30T12:32:44;102683.03;;;13.12;56.93
51496;BME280;37572;52.094;4.870;2024-01-30T12:35:10;102687.50;;;13.12;57.00
51496;BME280;37572;52.094;4.870;2024-01-30T12:37:36;102687.50;;;13.12;57.28
51496;BME280;37572;52.094;4.870;2024-01-30T12:40:02;102682.91;;;13.14;57.26
51496;BME280;37572;52.094;4.870;2024-01-30T12:42:28;102687.13;;;13.17;57.16
51496;BME280;37572;52.094;4.870;2024-01-30T12:44:53;102700.38;;;13.18;57.17